CheckWX is a tool to help pilots better visualize weather data.  It is not intended as a substitute for an official pre-flight weather briefing.

05:53:55 UTC

CYYJ METAR
Victoria International Airport
Victoria, Canada
Current

10 mins ago

CYYJ 200544Z 27004KT 15SM FEW008 BKN014 BKN020 BKN120 03/02 A2987 RMK SC1SC4SC1AC1 WND ESTD SLP117
Observed
Feb-20 @ 05:44 UTC
Wind
  • 270° at 4 KTS
Visibility
24,140 meters
Flight Rules
MVFR
Cloud Levels
  • Few at 800' AGL
  • Broken at 1,400' AGL
  • Broken at 2,000' AGL
  • Broken at 12,000' AGL
Temperature
C / 37°F
Dewpoint
C / 36°F
Humidity
93%
Altimeter
29.87" Hg
Pressure
1011.7 hPa
Previous

54 mins ago

CYYJ 200500Z 27004KT 12SM FEW008 SCT016 BKN120 OVC180 02/02 A2987 RMK SC1SC3AC3AC1 WND ESTD SLP117
Observed
Feb-20 @ 05:00 UTC
Wind
  • 270° at 4 KTS
Visibility
19,312 meters
Flight Rules
VFR
Cloud Levels
  • Few at 800' AGL
  • Scattered at 1,600' AGL
  • Broken at 12,000' AGL
  • Overcast at 18,000' AGL
Temperature
C / 36°F
Dewpoint
C / 36°F
Humidity
100%
Altimeter
29.87" Hg
Pressure
1011.7 hPa
Previous

2 hours ago

CYYJ 200400Z 27003KT 15SM FEW009 BKN018 BKN180 02/02 A2987 RMK SC1SC5AC2 SC TR TEMP HNDHLD WND ESTD SLP116
Observed
Feb-20 @ 04:00 UTC
Wind
  • 270° at 3 KTS
Visibility
24,140 meters
Flight Rules
MVFR
Cloud Levels
  • Few at 900' AGL
  • Broken at 1,800' AGL
  • Broken at 18,000' AGL
Temperature
C / 36°F
Dewpoint
C / 36°F
Humidity
100%
Altimeter
29.87" Hg
Pressure
1011.6 hPa